createdAt,value
2017-07-11T00:02:03.894Z,24.95
2017-07-11T00:04:32.872Z,27.55
2017-07-11T00:07:01.049Z,24.55
2017-07-11T00:09:29.229Z,23.25
2017-07-11T00:11:57.443Z,25.35
2017-07-11T00:14:25.632Z,26.65
2017-07-11T00:16:53.811Z,28.02
2017-07-11T00:19:22.019Z,29.23
2017-07-11T00:21:50.192Z,27.75
2017-07-11T00:24:18.371Z,29.67
2017-07-11T00:26:46.585Z,28.83
2017-07-11T00:29:14.761Z,28.90
2017-07-11T00:31:42.941Z,27.55
2017-07-11T00:34:11.146Z,26.75
2017-07-11T00:36:39.315Z,30.95
2017-07-11T00:39:07.479Z,28.85
2017-07-11T00:41:35.666Z,28.83
2017-07-11T00:44:03.862Z,29.60
2017-07-11T00:46:32.037Z,28.20
2017-07-11T00:49:00.214Z,32.75
2017-07-11T00:51:28.373Z,31.02
2017-07-11T00:53:56.548Z,26.95
2017-07-11T00:56:24.753Z,28.55
2017-07-11T00:58:52.910Z,28.15
2017-07-11T01:01:21.082Z,26.70
2017-07-11T01:03:49.271Z,25.65
2017-07-11T01:06:17.422Z,31.37
2017-07-11T01:08:45.583Z,35.90
2017-07-11T01:11:13.760Z,29.52
2017-07-11T01:13:41.944Z,33.13
2017-07-11T01:16:10.101Z,41.90
2017-07-11T01:18:38.302Z,36.08
2017-07-11T01:21:06.484Z,35.58
2017-07-11T01:23:34.661Z,38.35
2017-07-11T01:26:02.862Z,35.40
2017-07-11T01:28:31.019Z,36.20
2017-07-11T01:30:59.963Z,29.20
2017-07-11T01:33:28.473Z,29.52
2017-07-11T01:35:56.654Z,30.12
2017-07-11T01:38:24.804Z,30.40
2017-07-11T01:40:52.978Z,32.53
2017-07-11T01:43:21.754Z,28.60
2017-07-11T01:45:49.945Z,28.87
2017-07-11T01:48:18.150Z,30.52
2017-07-11T01:50:46.333Z,26.17
2017-07-11T01:53:14.491Z,26.17
2017-07-11T01:55:42.678Z,26.23
2017-07-11T01:58:10.853Z,26.12
2017-07-11T02:00:39.027Z,22.25
2017-07-11T02:03:07.223Z,21.75
2017-07-11T02:05:36.164Z,23.70
2017-07-11T02:08:04.344Z,28.90
2017-07-11T02:10:32.542Z,22.20
2017-07-11T02:13:00.709Z,22.85
2017-07-11T02:15:28.880Z,23.42
2017-07-11T02:17:57.072Z,26.75
2017-07-11T02:20:25.232Z,23.35
2017-07-11T02:22:53.390Z,22.75
2017-07-11T02:25:21.585Z,22.83
2017-07-11T02:27:49.758Z,23.05
2017-07-11T02:30:17.927Z,24.23
2017-07-11T02:32:46.110Z,22.17
2017-07-11T02:35:14.286Z,24.77
2017-07-11T02:37:42.464Z,24.08
2017-07-11T02:40:10.654Z,23.27
2017-07-11T02:42:39.601Z,24.52
2017-07-11T02:45:07.746Z,24.98
2017-07-11T02:47:35.931Z,23.50
2017-07-11T02:50:04.108Z,27.33
2017-07-11T02:52:32.280Z,35.90
2017-07-11T02:55:00.483Z,27.13
2017-07-11T02:57:28.642Z,26.05
2017-07-11T02:59:56.821Z,25.90
2017-07-11T03:02:25.008Z,30.23
2017-07-11T03:04:53.187Z,28.50
2017-07-11T03:07:21.339Z,30.10
2017-07-11T03:09:49.573Z,32.80
2017-07-11T03:12:18.506Z,31.60
2017-07-11T03:14:46.686Z,29.70
2017-07-11T03:17:14.884Z,28.62
2017-07-11T03:19:43.039Z,32.97
2017-07-11T03:22:11.217Z,37.08
2017-07-11T03:24:39.422Z,34.53
2017-07-11T03:27:07.601Z,39.03
2017-07-11T03:29:36.532Z,41.50
2017-07-11T03:32:04.732Z,39.85
2017-07-11T03:34:32.903Z,44.70
2017-07-11T03:37:01.077Z,40.12
2017-07-11T03:39:29.262Z,37.00
2017-07-11T03:41:57.410Z,43.50
2017-07-11T03:44:25.582Z,41.25
2017-07-11T03:46:53.793Z,39.88
2017-07-11T03:49:21.965Z,45.50
2017-07-11T03:51:50.144Z,49.40
2017-07-11T03:54:18.327Z,36.97
2017-07-11T03:56:46.501Z,48.58
2017-07-11T03:59:14.681Z,37.45
2017-07-11T04:01:42.885Z,37.90
2017-07-11T04:04:11.083Z,41.05
2017-07-11T04:06:39.266Z,38.47
2017-07-11T04:09:07.453Z,39.03
2017-07-11T04:11:35.634Z,42.75
2017-07-11T04:14:03.804Z,34.40
2017-07-11T04:16:31.998Z,37.47
2017-07-11T04:19:00.157Z,37.63
2017-07-11T04:21:28.326Z,40.75
2017-07-11T04:23:56.537Z,41.30
2017-07-11T04:26:24.708Z,38.80
2017-07-11T04:28:52.869Z,42.40
2017-07-11T04:31:21.069Z,45.95
2017-07-11T04:33:49.234Z,43.60
2017-07-11T04:36:17.407Z,46.40
2017-07-11T04:38:45.594Z,46.45
2017-07-11T04:41:13.765Z,40.72
2017-07-11T04:43:41.918Z,37.80
2017-07-11T04:46:10.119Z,43.03
2017-07-11T04:48:38.283Z,49.47
2017-07-11T04:51:06.454Z,43.33
2017-07-11T04:53:34.669Z,46.55
2017-07-11T04:56:03.606Z,53.03
2017-07-11T04:58:31.776Z,53.35
2017-07-11T05:00:59.976Z,51.25
2017-07-11T05:03:28.130Z,46.83
2017-07-11T05:05:56.293Z,49.40
2017-07-11T05:08:24.497Z,53.58
2017-07-11T05:10:52.651Z,52.10
2017-07-11T05:13:20.825Z,50.70
2017-07-11T05:15:49.039Z,59.25
2017-07-11T05:18:17.212Z,43.00
2017-07-11T05:20:45.385Z,43.35
2017-07-11T05:23:13.561Z,45.75
2017-07-11T05:25:41.736Z,43.70
2017-07-11T05:28:09.913Z,51.50
2017-07-11T05:30:38.107Z,48.97
2017-07-11T05:33:06.268Z,42.88
2017-07-11T05:35:35.200Z,44.30
2017-07-11T05:38:03.407Z,41.10
2017-07-11T05:40:31.590Z,40.75
2017-07-11T05:42:59.747Z,43.85
2017-07-11T05:45:27.950Z,43.60
2017-07-11T05:47:56.094Z,43.90
2017-07-11T05:50:24.306Z,43.97
2017-07-11T05:52:52.469Z,41.97
2017-07-11T05:55:20.645Z,38.15
2017-07-11T05:57:49.663Z,38.25
2017-07-11T06:00:18.646Z,38.72
2017-07-11T06:02:46.814Z,41.20
2017-07-11T06:05:14.989Z,38.72
2017-07-11T06:07:43.499Z,40.08
2017-07-11T06:10:12.428Z,33.05
2017-07-11T06:12:40.605Z,33.38
2017-07-11T06:15:08.791Z,30.77
2017-07-11T06:17:36.967Z,34.03
2017-07-11T06:20:05.892Z,36.65
2017-07-11T06:22:34.084Z,40.47
2017-07-11T06:25:02.253Z,38.58
2017-07-11T06:27:30.426Z,37.75
2017-07-11T06:29:58.606Z,40.25
2017-07-11T06:32:26.777Z,37.00
2017-07-11T06:34:54.934Z,38.38
2017-07-11T06:37:23.165Z,37.17
2017-07-11T06:39:51.342Z,36.83
2017-07-11T06:42:19.494Z,33.33
2017-07-11T06:44:47.703Z,37.63
2017-07-11T06:47:16.624Z,37.20
2017-07-11T06:49:44.801Z,39.67
2017-07-11T06:52:12.988Z,36.67
2017-07-11T06:54:41.148Z,38.30
2017-07-11T06:57:09.321Z,38.75
2017-07-11T06:59:37.519Z,34.70
2017-07-11T07:02:05.698Z,43.15
2017-07-11T07:04:33.872Z,40.45
2017-07-11T07:07:02.069Z,36.63
2017-07-11T07:09:30.247Z,35.22
2017-07-11T07:11:58.425Z,38.55
2017-07-11T07:14:26.606Z,36.45
2017-07-11T07:16:54.782Z,34.95
2017-07-11T07:19:22.980Z,35.85
2017-07-11T07:21:51.946Z,35.60
2017-07-11T07:24:20.107Z,31.83
2017-07-11T07:26:48.321Z,33.22
2017-07-11T07:29:17.275Z,33.72
2017-07-11T07:31:45.435Z,31.42
2017-07-11T07:34:13.609Z,29.50
2017-07-11T07:36:41.809Z,28.75
2017-07-11T07:39:09.963Z,29.20
2017-07-11T07:41:38.138Z,31.65
2017-07-11T07:44:06.332Z,28.33
2017-07-11T07:46:34.501Z,30.95
2017-07-11T07:49:02.659Z,31.85
2017-07-11T07:51:30.837Z,29.98
2017-07-11T07:53:58.986Z,29.63
2017-07-11T07:56:27.149Z,31.27
2017-07-11T07:58:55.336Z,30.27
2017-07-11T08:01:23.507Z,29.98
2017-07-11T08:03:51.655Z,30.80
2017-07-11T08:06:20.602Z,32.88
2017-07-11T08:08:48.777Z,29.87
2017-07-11T08:11:16.934Z,27.95
2017-07-11T08:13:45.134Z,26.62
2017-07-11T08:16:13.311Z,28.87
2017-07-11T08:18:41.468Z,26.87
2017-07-11T08:21:09.652Z,26.17
2017-07-11T08:23:37.829Z,24.35
2017-07-11T08:26:05.987Z,23.62
2017-07-11T08:28:34.180Z,22.92
2017-07-11T08:31:02.378Z,21.92
2017-07-11T08:33:30.532Z,18.23
2017-07-11T08:35:58.752Z,17.52
2017-07-11T08:38:26.922Z,16.92
2017-07-11T08:40:55.105Z,17.33
2017-07-11T08:43:23.301Z,14.40
2017-07-11T08:45:51.477Z,14.93
2017-07-11T08:48:19.649Z,16.40
2017-07-11T08:50:48.196Z,15.43
2017-07-11T08:53:16.381Z,20.43
2017-07-11T08:55:44.563Z,15.80
2017-07-11T08:58:12.769Z,17.62
2017-07-11T09:00:40.950Z,17.40
2017-07-11T09:03:09.106Z,17.70
2017-07-11T09:05:37.295Z,20.20
2017-07-11T09:08:05.469Z,18.42
2017-07-11T09:10:33.637Z,20.30
2017-07-11T09:13:01.842Z,23.45
2017-07-11T09:15:30.002Z,21.58
2017-07-11T09:17:58.183Z,20.25
2017-07-11T09:20:26.368Z,20.35
2017-07-11T09:22:54.544Z,19.42
2017-07-11T09:25:22.703Z,20.35
2017-07-11T09:27:50.912Z,18.35
2017-07-11T09:30:19.839Z,17.90
2017-07-11T09:32:48.022Z,17.50
2017-07-11T09:35:16.208Z,14.20
2017-07-11T09:37:44.361Z,16.17
2017-07-11T09:40:12.536Z,16.50
2017-07-11T09:42:40.723Z,17.17
2017-07-11T09:45:08.878Z,18.10
2017-07-11T09:47:37.056Z,17.87
2017-07-11T09:50:05.273Z,18.27
2017-07-11T09:52:33.454Z,17.93
2017-07-11T09:55:01.628Z,17.67
2017-07-11T09:57:29.818Z,18.90
2017-07-11T09:59:58.747Z,16.92
2017-07-11T10:02:26.928Z,17.35
2017-07-11T10:04:55.137Z,18.25
2017-07-11T10:07:23.322Z,17.92
2017-07-11T10:09:51.501Z,17.12
2017-07-11T10:12:19.704Z,15.77
2017-07-11T10:14:47.859Z,14.77
2017-07-11T10:17:16.013Z,15.33
2017-07-11T10:19:44.195Z,14.50
2017-07-11T10:22:12.366Z,15.80
2017-07-11T10:24:40.549Z,13.13
2017-07-11T10:27:08.757Z,13.50
2017-07-11T10:29:36.936Z,13.17
2017-07-11T10:32:05.122Z,12.90
2017-07-11T10:34:33.325Z,13.47
2017-07-11T10:37:01.502Z,13.40
2017-07-11T10:39:29.657Z,11.97
2017-07-11T10:41:57.848Z,12.40
2017-07-11T10:44:25.998Z,11.70
2017-07-11T10:46:54.174Z,13.20
2017-07-11T10:49:22.380Z,12.37
2017-07-11T10:51:50.529Z,12.60
2017-07-11T10:54:18.690Z,13.90
2017-07-11T10:56:46.879Z,13.70
2017-07-11T10:59:15.034Z,15.43
2017-07-11T11:01:43.196Z,18.57
2017-07-11T11:04:12.184Z,24.75
2017-07-11T11:06:41.115Z,25.40
2017-07-11T11:09:09.275Z,26.05
2017-07-11T11:11:37.464Z,22.67
2017-07-11T11:14:05.638Z,24.40
2017-07-11T11:16:33.820Z,20.98
2017-07-11T11:19:02.028Z,23.30
2017-07-11T11:21:30.200Z,26.77
2017-07-11T11:23:58.392Z,26.98
2017-07-11T11:26:26.597Z,23.02
2017-07-11T11:28:54.761Z,24.70
2017-07-11T11:31:23.701Z,23.38
2017-07-11T11:33:51.909Z,21.43
2017-07-11T11:36:20.147Z,19.90
2017-07-11T11:38:48.351Z,20.37
2017-07-11T11:41:16.920Z,21.00
2017-07-11T11:43:45.080Z,21.23
2017-07-11T11:46:13.242Z,21.30
2017-07-11T11:48:41.447Z,22.30
2017-07-11T11:51:09.603Z,21.48
2017-07-11T11:53:37.774Z,22.70
2017-07-11T11:56:05.977Z,23.30
2017-07-11T11:58:34.132Z,28.00
2017-07-11T12:01:02.308Z,30.52
2017-07-11T12:03:30.513Z,14.57
2017-07-11T12:05:58.681Z,13.82
2017-07-11T12:08:26.865Z,24.20
2017-07-11T12:10:55.073Z,26.05
2017-07-11T12:13:23.255Z,34.90
2017-07-11T12:15:51.435Z,35.90
2017-07-11T12:18:19.626Z,39.35
2017-07-11T12:20:47.779Z,42.03
2017-07-11T12:23:15.938Z,58.05
2017-07-11T12:25:44.886Z,47.03
2017-07-11T12:28:13.058Z,41.08
2017-07-11T12:30:41.216Z,39.70
2017-07-11T12:33:09.411Z,33.83
2017-07-11T12:35:37.574Z,34.85
2017-07-11T12:38:05.753Z,31.52
2017-07-11T12:40:33.957Z,32.83
2017-07-11T12:43:02.137Z,33.25
2017-07-11T12:45:30.314Z,31.37
2017-07-11T12:47:58.502Z,30.65
2017-07-11T12:50:27.453Z,28.02
2017-07-11T12:52:55.615Z,26.27
2017-07-11T12:55:23.810Z,27.62
2017-07-11T12:57:51.976Z,26.62
2017-07-11T13:00:20.156Z,25.83
2017-07-11T13:02:48.362Z,24.67
2017-07-11T13:05:17.306Z,28.40
2017-07-11T13:07:45.478Z,27.80
2017-07-11T13:10:13.680Z,27.40
2017-07-11T13:12:41.859Z,25.88
2017-07-11T13:15:10.012Z,15.63
2017-07-11T13:17:38.206Z,13.25
2017-07-11T13:20:06.367Z,10.00
2017-07-11T13:22:34.544Z,10.27
2017-07-11T13:25:02.724Z,8.13
2017-07-11T13:27:30.870Z,9.30
2017-07-11T13:29:59.033Z,9.02
2017-07-11T13:32:27.237Z,9.13
2017-07-11T13:34:55.394Z,8.10
2017-07-11T13:37:23.560Z,9.75
2017-07-11T13:39:51.754Z,9.93
2017-07-11T13:42:19.925Z,10.50
2017-07-11T13:44:48.114Z,9.48
2017-07-11T13:47:16.322Z,10.43
2017-07-11T13:49:45.247Z,12.98
2017-07-11T13:52:13.445Z,10.60
2017-07-11T13:54:41.669Z,11.80
2017-07-11T13:57:10.595Z,12.57
2017-07-11T13:59:38.749Z,13.48
2017-07-11T14:02:07.695Z,10.80
2017-07-11T14:04:35.849Z,10.82
2017-07-11T14:07:04.021Z,10.65
2017-07-11T14:09:32.221Z,11.18
2017-07-11T14:12:00.379Z,12.80
2017-07-11T14:14:28.578Z,12.45
2017-07-11T14:16:56.763Z,13.93
2017-07-11T14:19:24.941Z,12.85
2017-07-11T14:21:53.098Z,12.45
2017-07-11T14:24:22.069Z,12.55
2017-07-11T14:26:50.249Z,12.80
2017-07-11T14:29:18.429Z,12.68
2017-07-11T14:31:46.616Z,11.30
2017-07-11T14:34:14.787Z,12.45
2017-07-11T14:36:42.962Z,12.32
2017-07-11T14:39:11.148Z,12.37
2017-07-11T14:41:39.306Z,15.50
2017-07-11T14:44:07.454Z,12.63
2017-07-11T14:46:35.639Z,13.60
2017-07-11T14:49:03.791Z,12.80
2017-07-11T14:51:31.962Z,13.20
2017-07-11T14:54:00.163Z,10.10
2017-07-11T14:56:28.315Z,12.07
2017-07-11T14:58:56.481Z,8.82
2017-07-11T15:01:24.667Z,10.13
2017-07-11T15:03:52.832Z,9.93
2017-07-11T15:06:20.980Z,10.23
2017-07-11T15:08:49.924Z,10.40
2017-07-11T15:11:18.079Z,8.40
2017-07-11T15:13:46.227Z,8.75
2017-07-11T15:16:15.181Z,8.40
2017-07-11T15:18:43.326Z,6.90
2017-07-11T15:21:11.472Z,7.53
2017-07-11T15:23:39.665Z,7.80
2017-07-11T15:26:07.814Z,7.50
2017-07-11T15:28:35.966Z,7.15
2017-07-11T15:31:04.142Z,7.43
2017-07-11T15:33:32.291Z,9.00
2017-07-11T15:36:00.460Z,8.63
2017-07-11T15:38:28.654Z,7.40
2017-07-11T15:40:56.802Z,7.50
2017-07-11T15:43:24.971Z,8.30
2017-07-11T15:45:53.170Z,9.15
2017-07-11T15:48:21.319Z,8.45
2017-07-11T15:50:49.484Z,9.73
2017-07-11T15:53:18.435Z,7.85
2017-07-11T15:55:46.583Z,7.22
2017-07-11T15:58:14.757Z,6.15
2017-07-11T16:00:42.941Z,6.15
2017-07-11T16:03:11.094Z,6.22
2017-07-11T16:05:39.253Z,6.43
2017-07-11T16:08:08.225Z,6.80
2017-07-11T16:10:36.374Z,12.90
2017-07-11T16:13:04.542Z,9.25
2017-07-11T16:15:32.715Z,9.10
2017-07-11T16:18:00.881Z,8.68
2017-07-11T16:20:29.042Z,13.18
2017-07-11T16:22:58.569Z,13.85
2017-07-11T16:25:26.742Z,8.82
2017-07-11T16:27:54.891Z,9.73
2017-07-11T16:30:23.062Z,9.48
2017-07-11T16:32:51.228Z,8.15
2017-07-11T16:35:19.397Z,8.88
2017-07-11T16:37:48.465Z,9.55
2017-07-11T16:40:16.637Z,10.18
2017-07-11T16:42:44.827Z,10.73
2017-07-11T16:45:13.797Z,16.83
2017-07-11T16:47:41.958Z,9.27
2017-07-11T16:50:10.137Z,8.82
2017-07-11T16:52:38.323Z,7.62
2017-07-11T16:55:06.498Z,7.80
2017-07-11T16:57:34.673Z,6.57
2017-07-11T17:00:02.852Z,5.95
2017-07-11T17:02:31.014Z,8.07
2017-07-11T17:04:59.933Z,9.32
2017-07-11T17:07:28.157Z,10.70
2017-07-11T17:09:56.323Z,11.35
2017-07-11T17:12:24.502Z,10.63
2017-07-11T17:14:52.686Z,9.88
2017-07-11T17:17:20.845Z,10.68
2017-07-11T17:19:49.007Z,10.60
2017-07-11T17:22:17.189Z,10.40
2017-07-11T17:24:45.338Z,9.38
2017-07-11T17:27:13.494Z,8.55
2017-07-11T17:29:41.686Z,9.50
2017-07-11T17:32:09.858Z,9.88
2017-07-11T17:34:38.016Z,9.95
2017-07-11T17:37:06.634Z,9.77
2017-07-11T17:39:34.805Z,8.93
2017-07-11T17:42:02.985Z,10.50
2017-07-11T17:44:31.193Z,12.32
2017-07-11T17:46:59.350Z,11.35
2017-07-11T17:49:27.520Z,11.35
2017-07-11T17:51:55.717Z,11.93
2017-07-11T17:54:24.667Z,14.73
2017-07-11T17:56:52.833Z,15.60
2017-07-11T17:59:21.053Z,14.65
2017-07-11T18:01:49.234Z,18.35
2017-07-11T18:04:17.388Z,22.00
2017-07-11T18:06:45.605Z,20.80
2017-07-11T18:09:13.761Z,15.18
2017-07-11T18:11:42.687Z,19.10
2017-07-11T18:14:10.888Z,16.17
2017-07-11T18:16:39.067Z,17.05
2017-07-11T18:19:07.248Z,22.10
2017-07-11T18:21:35.427Z,31.85
2017-07-11T18:24:03.592Z,23.05
2017-07-11T18:26:31.751Z,16.48
2017-07-11T18:28:59.938Z,20.17
2017-07-11T18:31:28.114Z,16.75
2017-07-11T18:33:56.296Z,21.83
2017-07-11T18:36:24.485Z,26.15
2017-07-11T18:38:52.647Z,17.77
2017-07-11T18:41:20.810Z,23.38
2017-07-11T18:43:49.025Z,32.55
2017-07-11T18:46:17.973Z,17.55
2017-07-11T18:48:46.139Z,14.20
2017-07-11T18:51:14.349Z,15.00
2017-07-11T18:53:42.529Z,14.10
2017-07-11T18:56:10.712Z,11.48
2017-07-11T18:58:38.931Z,11.23
2017-07-11T19:01:07.094Z,9.23
2017-07-11T19:03:35.252Z,10.40
2017-07-11T19:06:04.210Z,8.80
2017-07-11T19:08:32.373Z,9.90
2017-07-11T19:11:00.529Z,10.23
2017-07-11T19:13:28.739Z,16.87
2017-07-11T19:15:56.915Z,10.30
2017-07-11T19:18:25.100Z,13.70
2017-07-11T19:20:53.309Z,12.50
2017-07-11T19:23:22.242Z,10.30
2017-07-11T19:25:50.401Z,12.88
2017-07-11T19:28:18.618Z,10.00
2017-07-11T19:30:46.810Z,13.13
2017-07-11T19:33:15.048Z,13.55
2017-07-11T19:35:43.235Z,8.88
2017-07-11T19:38:11.409Z,8.00
2017-07-11T19:40:39.565Z,7.80
2017-07-11T19:43:07.772Z,12.73
2017-07-11T19:45:35.935Z,12.63
2017-07-11T19:48:04.874Z,8.13
2017-07-11T19:50:33.077Z,8.52
2017-07-11T19:53:01.255Z,8.60
2017-07-11T19:55:29.429Z,7.68
2017-07-11T19:57:57.624Z,8.35
2017-07-11T20:00:26.565Z,7.30
2017-07-11T20:02:54.883Z,8.13
2017-07-11T20:05:23.079Z,8.13
2017-07-11T20:07:52.011Z,10.68
2017-07-11T20:10:20.172Z,11.57
2017-07-11T20:12:48.387Z,7.07
2017-07-11T20:15:16.561Z,7.22
2017-07-11T20:17:44.715Z,10.77
2017-07-11T20:20:12.942Z,13.30
2017-07-11T20:22:41.865Z,31.30
2017-07-11T20:25:10.023Z,19.15
2017-07-11T20:27:38.235Z,16.45
2017-07-11T20:30:06.394Z,19.30
2017-07-11T20:32:34.563Z,18.87
2017-07-11T20:35:02.778Z,12.98
2017-07-11T20:37:30.956Z,9.57
2017-07-11T20:39:59.119Z,11.75
2017-07-11T20:42:27.300Z,14.63
2017-07-11T20:44:55.485Z,14.05
2017-07-11T20:47:23.646Z,14.50
2017-07-11T20:49:51.825Z,12.90
2017-07-11T20:52:20.012Z,12.43
2017-07-11T20:54:48.176Z,8.52
2017-07-11T20:57:16.356Z,9.93
2017-07-11T20:59:44.530Z,10.82
2017-07-11T21:02:12.691Z,6.80
2017-07-11T21:04:40.881Z,8.10
2017-07-11T21:07:09.036Z,8.25
2017-07-11T21:09:37.202Z,7.93
2017-07-11T21:12:05.415Z,9.70
2017-07-11T21:14:33.579Z,12.70
2017-07-11T21:17:01.753Z,9.95
2017-07-11T21:19:29.964Z,15.35
2017-07-11T21:21:58.882Z,21.30
2017-07-11T21:24:27.134Z,16.67
2017-07-11T21:26:55.374Z,11.23
2017-07-11T21:29:23.547Z,11.00
2017-07-11T21:31:51.704Z,9.98
2017-07-11T21:34:19.911Z,11.25
2017-07-11T21:36:48.843Z,11.73
2017-07-11T21:39:17.030Z,9.60
2017-07-11T21:41:45.208Z,10.07
2017-07-11T21:44:13.402Z,9.65
2017-07-11T21:46:41.571Z,10.20
2017-07-11T21:49:09.774Z,9.50
2017-07-11T21:51:37.924Z,8.00
2017-07-11T21:54:06.084Z,7.82
2017-07-11T21:56:34.272Z,8.80
2017-07-11T21:59:02.420Z,7.65
2017-07-11T22:01:30.578Z,7.72
2017-07-11T22:03:59.303Z,8.43
2017-07-11T22:06:27.473Z,9.23
2017-07-11T22:08:55.644Z,8.85
2017-07-11T22:11:23.823Z,14.15
2017-07-11T22:13:52.174Z,9.45
2017-07-11T22:16:20.341Z,9.90
2017-07-11T22:18:48.556Z,10.70
2017-07-11T22:21:16.769Z,11.70
2017-07-11T22:23:45.716Z,10.60
2017-07-11T22:26:13.925Z,11.52
2017-07-11T22:28:42.112Z,11.32
2017-07-11T22:31:11.903Z,13.27
2017-07-11T22:33:40.110Z,13.90
2017-07-11T22:36:08.287Z,11.18
2017-07-11T22:38:36.450Z,11.52
2017-07-11T22:41:04.639Z,10.85
2017-07-11T22:43:32.809Z,10.48
2017-07-11T22:46:00.976Z,11.82
2017-07-11T22:48:29.163Z,11.60
2017-07-11T22:50:57.316Z,10.55
2017-07-11T22:53:26.395Z,8.68
2017-07-11T22:55:54.595Z,11.23
2017-07-11T22:58:23.534Z,9.23
2017-07-11T23:00:51.718Z,14.32
2017-07-11T23:03:19.905Z,11.60
2017-07-11T23:05:48.832Z,14.18
2017-07-11T23:08:16.991Z,10.77
2017-07-11T23:10:45.193Z,9.48
2017-07-11T23:13:13.358Z,13.35
2017-07-11T23:15:41.535Z,12.05
2017-07-11T23:18:09.723Z,14.60
2017-07-11T23:20:37.916Z,12.73
2017-07-11T23:23:06.093Z,10.68
2017-07-11T23:25:34.290Z,9.68
2017-07-11T23:28:03.214Z,9.88
2017-07-11T23:30:31.374Z,10.18
2017-07-11T23:32:59.558Z,8.25
2017-07-11T23:35:27.710Z,12.05
2017-07-11T23:37:55.863Z,8.43
2017-07-11T23:40:24.061Z,7.72
2017-07-11T23:42:53.000Z,11.45
2017-07-11T23:45:21.173Z,8.80
2017-07-11T23:47:49.372Z,12.95
2017-07-11T23:50:17.546Z,11.00
2017-07-11T23:52:45.698Z,9.60
2017-07-11T23:55:13.898Z,9.23
2017-07-11T23:57:42.046Z,9.40
